San Antonio, Valles Caldera, New Mexico Weather observations

Data are for 10 minute period ending at time listed.
 Day   Time   Solar   Ave.   Ave.  Ave.  Vector  Max.   Baro.   Total    
  of    of     Rad.   Air    Rel.  Wind   Wind   Wind  Press.  Precip.   
Year   Day            Temp.  Hum.  Speed  Dir.   Gust                    
2014   (MST)  Kw/m2    F      %     mph   deg.    mph    mb.     in.     
-------------------------------------------------------------------------
 208    8:20   0.55   68.9    51    1.5    91     3.0   398.9    0.00 
 208    8:30   0.58   73.0    44    0.9   310     2.4   399.3    0.00 
 208    8:40   0.61   75.5    41    1.7   247     4.2   399.6    0.00 
 208    8:50   0.64   75.2    40    1.4   170     3.0   399.6    0.00 
 208    9:00   0.67   75.8    40    2.1   224     4.8   400.3    0.00 
 208    9:10   0.70   76.2    38    2.9   255     9.0   400.6    0.00 
 208    9:20   0.74   76.3    36    5.0   256    10.2   400.9    0.00 
 208    9:30   0.77   76.9    34    5.3   267     9.6   400.9    0.00 
 208    9:40   0.80   77.8    32    6.3   271    12.5   401.3    0.00 
 208    9:50   0.83   78.6    31    4.7   276     7.8   401.6    0.00 
 208   10:00   0.86   77.3    34    7.8   262    11.9   401.6    0.00 
 208   10:10   0.87   77.3    33    6.0   258    10.2   401.6    0.00 
 208   10:20   0.85   75.9    37    7.8   251    11.3   402.0    0.00 
 208   10:30   0.88   76.9    34    7.6   279    11.3   402.0    0.00 
 208   10:40   0.97   77.4    34    5.4   289    10.2   402.0    0.00 
 208   10:50   1.01   78.3    35    6.1   273    10.2   402.0    0.00 
 208   11:00   1.01   77.5    37    6.4   235    11.3   402.0    0.00 
 208   11:10   0.17   75.1    38    4.5   232     7.2   399.9    0.00 
 208   11:20   0.13   71.9    48    5.6   241    10.8   400.6    0.00 
 208   11:30   0.09   66.9    57    7.3   239    12.5   402.0    0.03 
 208   11:40   0.09   62.6    74    4.7   356     7.2   400.3    0.00 
 208   11:50   0.08   60.7    81    5.5    15     9.6   399.9    0.01 
 208   12:00   0.07   60.1    79    6.1    34     9.0   399.3    0.01 
 208   12:10   0.05   58.9    81    3.7    51     8.4   398.9    0.01 
 208   12:20   0.03   59.0    79    3.0   102     6.0   398.6    0.01 
 208   12:30   0.01   58.0    80    7.9    79    17.9   398.2    0.10 
 208   12:40   0.01   57.3    80   10.0    90    17.3   398.2    0.12 
 208   12:50   0.01   55.5    85   11.2   101    15.5   398.2    0.07 
 208   13:00   0.02   55.1    86    6.7    83    14.3   398.6    0.05 
 208   13:10   0.01   54.4    87   10.0    96    16.7   398.6    0.05 
 208   13:20   0.02   55.2    84    5.4    80    14.3   398.2    0.03 
 208   13:30   0.02   53.1    87   10.9   124    14.9   398.2    0.04 
 208   13:40   0.02   52.3    90    7.5    97    11.3   398.6    0.06 
 208   13:50   0.03   52.8    92    3.1   336     4.8   398.6    0.02 
 208   14:00   0.04   52.9    91    4.0   143     7.8   398.6    0.00 
 208   14:10   0.02   53.1    89    5.3    62    11.3   398.2    0.00 
 208   14:20   0.02   53.4    90    2.8    41     6.0   398.6    0.00 
 208   14:30   0.02   53.8    90    6.3   100    14.9   398.6    0.00 
 208   14:40   0.02   54.5    86    5.1    39     9.0   398.2    0.00 
 208   14:50   0.02   54.2    89    3.1   110     6.6   398.2    0.00 
 208   15:00   0.02   53.8    90    0.8    59     2.4   398.6    0.00 
 208   15:10   0.01   53.9    91    1.0    11     2.4   398.6    0.00 
 208   15:20   0.02   53.9    92    1.7   134     3.6   398.6    0.01 
 208   15:30   0.02   54.0    92    2.8   326     4.2   398.6    0.00 
 208   15:40   0.02   54.0    92    2.6   135     5.4   398.6    0.00 
 208   15:50   0.03   54.0    91    2.8   319     4.8   398.6    0.00 
 208   16:00   0.03   54.0    92    3.4   282     6.6   398.6    0.00 
 208   16:10   0.03   54.0    92    1.6   125     5.4   398.9    0.00 
 208   16:20   0.02   53.8    93    6.3   143    10.8   398.6    0.00 
 208   16:30   0.02   53.7    93    2.4   138     6.0   398.6    0.00 
 208   16:40   0.02   53.7    93    3.1    53     7.2   398.9    0.00 
 208   16:50   0.03   53.7    92    2.3   322     4.2   398.9    0.00 
 208   17:00   0.04   54.0    91    2.4   150     5.4   398.6    0.00 
 208   17:10   0.04   53.6    92    4.0    54     6.6   398.6    0.00 
 208   17:20   0.04   53.7    93    4.3   209     7.8   398.9    0.00 
 208   17:30   0.04   53.6    92    1.3   123     3.0   398.9    0.00 
 208   17:40   0.05   53.8    92    1.1   323     3.6   398.9    0.00 
 208   17:50   0.07   54.1    92    1.7   322     3.6   398.9    0.00 
 208   18:00   0.06   54.3    92    2.2   150     4.2   398.9    0.00 
 208   18:10   0.03   54.4    92    3.0   133     8.4   398.6    0.00 
 208   18:20   0.01   54.2    92    5.3    96    10.2   398.6    0.00 
 208   18:30   0.02   54.1    93    5.4   277     9.6   398.9    0.01 
 208   18:40   0.02   54.0    93    0.9   140     6.0   398.9    0.00 
 208   18:50   0.01   54.0    92    8.0   125    15.5   398.6    0.00 
 208   19:00   0.00   53.9    92   10.5    82    20.3   398.6    0.04 
 208   19:10   0.00   54.4    84    6.9    40    10.8   398.2    0.00 
 208   19:20   0.00   53.7    89    2.9   345     7.2   398.6    0.00 
 208   19:30   0.00   53.3    90    2.9    66     6.0   398.6    0.00 
 208   19:40   0.00   53.3    90    3.2    65     6.6   398.6    0.00 
 208   19:50   0.00   53.5    89    3.4   301     7.2   398.2    0.00 
 208   20:00   0.00   53.3    91    3.7   321     6.6   398.6    0.00 
 208   20:10   0.00   53.1    92    2.7    87     5.4   398.6    0.00 
 208   20:20   0.00   52.9    93    1.4    19     4.8   398.6    0.00 
 208   20:30   0.00   52.6    93    3.3   104     6.6   398.6    0.00 
 208   20:40   0.00   52.4    93    1.1   341     3.6   398.6    0.00 
 208   20:50   0.00   52.4    93    2.9    26     6.6   398.6    0.00 
 208   21:00   0.00   53.3    91    6.7   120    13.1   398.6    0.00 
 208   21:10   0.00   53.5    88    4.1   150     8.4   398.2    0.00 
 208   21:20   0.00   53.6    87    3.6   350     6.6   397.9    0.01 
 208   21:30   0.00   53.0    90    3.4    32     5.4   398.6    0.01 
 208   21:40   0.00   52.8    93    3.3    13     4.8   398.6    0.00 
 208   21:50   0.00   52.9    93    2.6     8     6.0   398.6    0.00 
 208   22:00   0.00   52.8    93    3.0   342     4.8   398.9    0.01 
 208   22:10   0.00   52.8    94    2.5    28     4.2   398.9    0.00 
 208   22:20   0.00   52.8    94    1.8   334     4.2   398.9    0.01 
 208   22:30   0.00   52.6    94    3.7   111     6.6   398.9    0.00 
 208   22:40   0.00   52.8    93    3.3    46     7.8   398.9    0.00 
 208   22:50   0.00   53.0    92    1.8   180     4.8   398.6    0.01 
 208   23:00   0.00   52.9    92    1.0   109     2.4   398.6    0.00 
 208   23:10   0.00   52.7    93    0.1    15     1.8   398.6    0.00 
 208   23:20   0.00   52.6    93    2.3   323     4.2   398.6    0.00 
 208   23:30   0.00   52.5    94    2.5    22     4.8   398.9    0.00 
 208   23:40   0.00   52.3    94    1.8   141     3.6   398.9    0.00 
 208   23:50   0.00   51.9    94    2.3    78     4.8   398.9    0.00 
 209    0:00   0.00   52.0    94    1.9    61     4.2   398.9    0.00 
 209    0:10   0.00   52.0    94    1.4    45     3.0   398.6    0.00 
 209    0:20   0.00   51.8    94    1.8    34     3.6   398.6    0.00 
 209    0:30   0.00   51.6    94    1.8    81     3.6   398.6    0.00 
 209    0:40   0.00   51.4    94    1.4    18     3.6   398.9    0.00 
 209    0:50   0.00   51.0    94    2.2   296     4.2   398.9    0.00 
 209    1:00   0.00   50.9    94    2.0    22     3.0   398.6    0.00 
 209    1:10   0.00   51.0    95    1.1    48     3.0   398.9    0.00 
 209    1:20   0.00   50.8    94    1.9   110     4.2   398.6    0.00 
 209    1:30   0.00   50.1    94    1.4    72     3.6   398.6    0.00 
 209    1:40   0.00   49.9    94    0.7     4     2.4   398.6    0.00 
 209    1:50   0.00   49.5    95    0.4    65     1.8   398.6    0.00 
 209    2:00   0.00   49.2    95    0.5    25     2.4   398.6    0.00 
 209    2:10   0.00   49.1    95    1.1    40     3.0   398.6    0.00 
 209    2:20   0.00   48.7    95    1.3    19     3.0   398.6    0.00 
 209    2:30   0.00   48.6    95    0.1    27     1.2   398.6    0.00 
 209    2:40   0.00   48.5    95    0.2    48     1.8   398.6    0.00 
 209    2:50   0.00   48.1    95    0.6    88     2.4   398.6    0.00 
 209    3:00   0.00   48.4    95    1.3   331     3.6   398.6    0.00 
 209    3:10   0.00   48.5    95    0.8   342     2.4   398.6    0.00 
 209    3:20   0.00   48.2    95    0.8   142     2.4   398.6    0.00 
 209    3:30   0.00   48.1    95    1.4   264     3.6   398.6    0.00 
 209    3:40   0.00   47.6    95    1.1   293     3.0   398.6    0.00 
 209    3:50   0.00   47.6    96    0.6   356     2.4   398.6    0.00 
 209    4:00   0.00   47.5    96    0.9   281     3.0   398.6    0.00 
 209    4:10   0.00   47.2    96    0.9   208     2.4   398.6    0.01 
 209    4:20   0.00   47.0    96    0.8   168     2.4   398.6    0.00 
 209    4:30   0.00   46.6    96    0.5   119     2.4   398.6    0.00 
 209    4:40   0.00   46.7    96    0.2   180     1.2   398.6    0.00 
 209    4:50   0.00   46.1    96    0.6   180     2.4   398.6    0.00 
 209    5:00   0.00   45.6    96    0.0   243     1.2   398.6    0.00 
 209    5:10   0.00   45.7    96    0.0   234     1.2   398.6    0.00 
 209    5:20   0.01   45.9    96    0.4   309     3.0   398.6    0.00 
 209    5:30   0.01   46.0    96    1.3   274     2.4   398.6    0.00 
 209    5:40   0.02   46.1    96    0.0     0     0.0   398.6    0.00 
 209    5:50   0.03   46.2    96    0.5   154     1.8   398.6    0.00 
 209    6:00   0.04   45.8    96    1.4   152     3.0   398.6    0.00 
 209    6:10   0.03   45.4    96    0.8   187     3.0   398.6    0.00 
 209    6:20   0.03   45.5    96    0.5   293     2.4   398.6    0.00 
 209    6:30   0.03   45.8    96    0.7   190     2.4   398.6    0.00 
 209    6:40   0.05   45.8    96    0.3    13     2.4   398.6    0.00 
 209    6:50   0.09   47.0    96    1.1   290     2.4   398.6    0.00 
 209    7:00   0.17   47.9    96    0.2   127     2.4   398.9    0.00 
 209    7:10   0.28   50.2    96    1.0   219     3.0   398.9    0.00 
 209    7:20   0.33   53.5    96    1.9   318     4.2   399.3    0.00 
 209    7:30   0.37   55.6    93    2.7   264     4.8   399.3    0.00 
 209    7:40   0.40   57.7    86    2.0   266     5.4   398.6    0.00 
 209    7:50   0.43   60.6    73    4.4   106     7.8   398.2    0.00 
 209    8:00   0.47   60.9    69    6.4    96    13.1   398.2    0.00 
 209    8:10   0.56   61.3    68    6.8    99    12.5   398.6    0.00 

Return to San Antonio, Valles Caldera graphs page.


Western Regional Climate Center,wrcc@dri.edu